Skip Navigation Linkwww.weather.gov 
NOAA logo - Select to go to the NOAA homepage National Weather Service
 Headquarters Office   NWS logo
Internet Weather Source
 
   
 

On or about April 4th, 2012, request for METARS through this service will be redirected to:

http://www.aviationweather.gov/adds/metars/

This redirection is part of a larger effort to reduce duplication of effort within the National Weather Service. The website above offers the same functionality. It also needs to be noted that the NWS Aviation Weather Center operated website above is the only FAA approved source of aviation weather overe the Internet to be used for pilot briefings. Please update bookmarks, links, etc..

KCVG

The most recent METAR observation from KCVG in our system was generated at the source at:

2014/04/17 03:04 UTC

The observation is:


2014/04/17 02:52 KCVG 170252Z 10006KT 10SM FEW250 06/M05 A3026 RMK AO2 SLP251 T00611050 53006


US Dept of Commerce
National Oceanic and Atmospheric Administration
National Weather Service
Office of the Chief Information Officer (OCIO13)
1325 East West Highway
Silver Spring, MD 20910
Page last modified: Feb 28, 2012
Page Author: NWS Webmaster
Disclaimer
Feedback
Privacy Notice
Credits